sensor_id;sensor_type;location;lat;lon;timestamp;P1;durP1;ratioP1;P2;durP2;ratioP2
7359;SDS011;3720;48.274;7.796;2023-03-14T00:02:20;2.10;;;0.77;;
7359;SDS011;3720;48.274;7.796;2023-03-14T00:04:53;1.90;;;0.80;;
7359;SDS011;3720;48.274;7.796;2023-03-14T00:07:26;1.10;;;0.73;;
7359;SDS011;3720;48.274;7.796;2023-03-14T00:10:04;2.92;;;0.88;;
7359;SDS011;3720;48.274;7.796;2023-03-14T00:12:38;2.08;;;0.82;;
7359;SDS011;3720;48.274;7.796;2023-03-14T00:15:10;2.53;;;0.70;;
7359;SDS011;3720;48.274;7.796;2023-03-14T00:17:43;1.40;;;0.70;;
7359;SDS011;3720;48.274;7.796;2023-03-14T00:20:15;1.15;;;0.70;;
7359;SDS011;3720;48.274;7.796;2023-03-14T00:22:47;0.93;;;0.63;;
7359;SDS011;3720;48.274;7.796;2023-03-14T00:25:20;1.48;;;0.70;;
7359;SDS011;3720;48.274;7.796;2023-03-14T00:27:52;1.27;;;0.45;;
7359;SDS011;3720;48.274;7.796;2023-03-14T00:30:24;1.13;;;0.52;;
7359;SDS011;3720;48.274;7.796;2023-03-14T00:32:57;1.10;;;0.60;;
7359;SDS011;3720;48.274;7.796;2023-03-14T00:35:30;1.08;;;0.60;;
7359;SDS011;3720;48.274;7.796;2023-03-14T00:38:01;2.08;;;0.80;;
7359;SDS011;3720;48.274;7.796;2023-03-14T00:40:38;2.03;;;0.60;;
7359;SDS011;3720;48.274;7.796;2023-03-14T00:43:10;1.58;;;0.50;;
7359;SDS011;3720;48.274;7.796;2023-03-14T00:45:42;1.48;;;0.70;;
7359;SDS011;3720;48.274;7.796;2023-03-14T00:48:14;0.60;;;0.60;;
7359;SDS011;3720;48.274;7.796;2023-03-14T00:50:46;1.15;;;0.60;;
7359;SDS011;3720;48.274;7.796;2023-03-14T00:53:18;1.42;;;0.60;;
7359;SDS011;3720;48.274;7.796;2023-03-14T00:55:51;1.23;;;0.70;;
7359;SDS011;3720;48.274;7.796;2023-03-14T00:58:23;1.00;;;0.60;;
7359;SDS011;3720;48.274;7.796;2023-03-14T01:00:55;1.83;;;0.70;;
7359;SDS011;3720;48.274;7.796;2023-03-14T01:03:27;2.45;;;0.60;;
7359;SDS011;3720;48.274;7.796;2023-03-14T01:06:06;0.68;;;0.50;;
7359;SDS011;3720;48.274;7.796;2023-03-14T01:08:39;1.60;;;0.60;;
7359;SDS011;3720;48.274;7.796;2023-03-14T01:11:14;2.15;;;0.68;;
7359;SDS011;3720;48.274;7.796;2023-03-14T01:13:48;2.47;;;0.90;;
7359;SDS011;3720;48.274;7.796;2023-03-14T01:16:20;2.72;;;0.70;;
7359;SDS011;3720;48.274;7.796;2023-03-14T01:18:54;2.08;;;0.60;;
7359;SDS011;3720;48.274;7.796;2023-03-14T01:21:26;3.25;;;0.90;;
7359;SDS011;3720;48.274;7.796;2023-03-14T01:24:01;2.20;;;1.00;;
7359;SDS011;3720;48.274;7.796;2023-03-14T01:26:36;2.03;;;0.70;;
7359;SDS011;3720;48.274;7.796;2023-03-14T01:29:07;1.23;;;0.50;;
7359;SDS011;3720;48.274;7.796;2023-03-14T01:31:39;2.55;;;0.70;;
7359;SDS011;3720;48.274;7.796;2023-03-14T01:34:11;3.63;;;0.80;;
7359;SDS011;3720;48.274;7.796;2023-03-14T01:36:43;3.35;;;0.80;;
7359;SDS011;3720;48.274;7.796;2023-03-14T01:39:15;3.65;;;0.70;;
7359;SDS011;3720;48.274;7.796;2023-03-14T01:41:48;2.78;;;0.70;;
7359;SDS011;3720;48.274;7.796;2023-03-14T01:44:20;2.63;;;0.80;;
7359;SDS011;3720;48.274;7.796;2023-03-14T01:46:52;3.40;;;0.70;;
7359;SDS011;3720;48.274;7.796;2023-03-14T01:49:25;2.45;;;0.70;;
7359;SDS011;3720;48.274;7.796;2023-03-14T01:52:00;5.60;;;0.75;;
7359;SDS011;3720;48.274;7.796;2023-03-14T01:54:35;2.53;;;1.00;;
7359;SDS011;3720;48.274;7.796;2023-03-14T01:57:12;3.25;;;0.80;;
7359;SDS011;3720;48.274;7.796;2023-03-14T01:59:48;2.92;;;0.80;;
7359;SDS011;3720;48.274;7.796;2023-03-14T02:02:24;3.55;;;0.90;;
7359;SDS011;3720;48.274;7.796;2023-03-14T02:04:58;5.60;;;1.00;;
7359;SDS011;3720;48.274;7.796;2023-03-14T02:07:32;4.25;;;0.90;;
7359;SDS011;3720;48.274;7.796;2023-03-14T02:10:07;3.40;;;0.90;;
7359;SDS011;3720;48.274;7.796;2023-03-14T02:12:42;2.80;;;0.80;;
7359;SDS011;3720;48.274;7.796;2023-03-14T02:15:16;3.63;;;0.90;;
7359;SDS011;3720;48.274;7.796;2023-03-14T02:17:48;4.72;;;0.90;;
7359;SDS011;3720;48.274;7.796;2023-03-14T02:20:24;2.60;;;0.80;;
7359;SDS011;3720;48.274;7.796;2023-03-14T02:23:03;3.28;;;0.90;;
7359;SDS011;3720;48.274;7.796;2023-03-14T02:25:39;4.60;;;1.00;;
7359;SDS011;3720;48.274;7.796;2023-03-14T02:28:16;3.97;;;0.90;;
7359;SDS011;3720;48.274;7.796;2023-03-14T02:30:48;2.88;;;0.98;;
7359;SDS011;3720;48.274;7.796;2023-03-14T02:33:21;4.72;;;1.00;;
7359;SDS011;3720;48.274;7.796;2023-03-14T02:35:55;5.75;;;0.70;;
7359;SDS011;3720;48.274;7.796;2023-03-14T02:38:31;4.28;;;0.80;;
7359;SDS011;3720;48.274;7.796;2023-03-14T02:41:07;3.33;;;0.80;;
7359;SDS011;3720;48.274;7.796;2023-03-14T02:43:41;3.97;;;0.80;;
7359;SDS011;3720;48.274;7.796;2023-03-14T02:46:13;3.50;;;0.88;;
7359;SDS011;3720;48.274;7.796;2023-03-14T02:48:48;3.25;;;0.85;;
7359;SDS011;3720;48.274;7.796;2023-03-14T02:51:24;4.53;;;0.93;;
7359;SDS011;3720;48.274;7.796;2023-03-14T02:53:58;5.78;;;0.75;;
7359;SDS011;3720;48.274;7.796;2023-03-14T02:56:30;7.22;;;1.10;;
7359;SDS011;3720;48.274;7.796;2023-03-14T02:59:03;2.25;;;0.70;;
7359;SDS011;3720;48.274;7.796;2023-03-14T03:01:35;4.40;;;0.80;;
7359;SDS011;3720;48.274;7.796;2023-03-14T03:04:07;3.45;;;0.75;;
7359;SDS011;3720;48.274;7.796;2023-03-14T03:06:39;4.93;;;1.05;;
7359;SDS011;3720;48.274;7.796;2023-03-14T03:09:12;3.70;;;1.00;;
7359;SDS011;3720;48.274;7.796;2023-03-14T03:11:44;3.53;;;0.80;;
7359;SDS011;3720;48.274;7.796;2023-03-14T03:14:18;3.47;;;1.00;;
7359;SDS011;3720;48.274;7.796;2023-03-14T03:16:49;3.80;;;1.00;;
7359;SDS011;3720;48.274;7.796;2023-03-14T03:19:21;2.70;;;0.80;;
7359;SDS011;3720;48.274;7.796;2023-03-14T03:21:53;4.28;;;0.90;;
7359;SDS011;3720;48.274;7.796;2023-03-14T03:24:25;4.80;;;0.85;;
7359;SDS011;3720;48.274;7.796;2023-03-14T03:26:57;3.97;;;0.90;;
7359;SDS011;3720;48.274;7.796;2023-03-14T03:29:31;3.22;;;1.00;;
7359;SDS011;3720;48.274;7.796;2023-03-14T03:32:03;5.35;;;1.05;;
7359;SDS011;3720;48.274;7.796;2023-03-14T03:34:35;3.80;;;0.80;;
7359;SDS011;3720;48.274;7.796;2023-03-14T03:37:07;5.82;;;0.88;;
7359;SDS011;3720;48.274;7.796;2023-03-14T03:39:39;3.00;;;0.82;;
7359;SDS011;3720;48.274;7.796;2023-03-14T03:42:11;3.35;;;0.80;;
7359;SDS011;3720;48.274;7.796;2023-03-14T03:44:44;4.88;;;1.10;;
7359;SDS011;3720;48.274;7.796;2023-03-14T03:47:17;3.47;;;0.70;;
7359;SDS011;3720;48.274;7.796;2023-03-14T03:49:49;5.30;;;1.35;;
7359;SDS011;3720;48.274;7.796;2023-03-14T03:52:21;2.60;;;1.00;;
7359;SDS011;3720;48.274;7.796;2023-03-14T03:54:53;4.47;;;0.85;;
7359;SDS011;3720;48.274;7.796;2023-03-14T03:57:25;4.57;;;0.80;;
7359;SDS011;3720;48.274;7.796;2023-03-14T03:59:58;4.85;;;1.30;;
7359;SDS011;3720;48.274;7.796;2023-03-14T04:02:30;4.47;;;0.80;;
7359;SDS011;3720;48.274;7.796;2023-03-14T04:05:02;4.82;;;1.00;;
7359;SDS011;3720;48.274;7.796;2023-03-14T04:07:34;4.13;;;0.70;;
7359;SDS011;3720;48.274;7.796;2023-03-14T04:10:06;3.45;;;0.65;;
7359;SDS011;3720;48.274;7.796;2023-03-14T04:12:39;3.45;;;0.70;;
7359;SDS011;3720;48.274;7.796;2023-03-14T04:15:12;3.35;;;0.82;;
7359;SDS011;3720;48.274;7.796;2023-03-14T04:17:44;2.70;;;0.70;;
7359;SDS011;3720;48.274;7.796;2023-03-14T04:20:16;4.38;;;0.80;;
7359;SDS011;3720;48.274;7.796;2023-03-14T04:22:48;4.13;;;0.90;;
7359;SDS011;3720;48.274;7.796;2023-03-14T04:25:20;2.63;;;0.80;;
7359;SDS011;3720;48.274;7.796;2023-03-14T04:27:53;3.38;;;0.82;;
7359;SDS011;3720;48.274;7.796;2023-03-14T04:30:26;4.13;;;0.60;;
7359;SDS011;3720;48.274;7.796;2023-03-14T04:32:58;7.75;;;1.00;;
7359;SDS011;3720;48.274;7.796;2023-03-14T04:35:30;6.47;;;0.80;;
7359;SDS011;3720;48.274;7.796;2023-03-14T04:38:02;3.25;;;0.80;;
7359;SDS011;3720;48.274;7.796;2023-03-14T04:40:36;6.13;;;1.05;;
7359;SDS011;3720;48.274;7.796;2023-03-14T04:43:08;4.70;;;0.82;;
7359;SDS011;3720;48.274;7.796;2023-03-14T04:45:42;3.90;;;0.60;;
7359;SDS011;3720;48.274;7.796;2023-03-14T04:48:15;5.57;;;0.82;;
7359;SDS011;3720;48.274;7.796;2023-03-14T04:50:47;6.38;;;0.90;;
7359;SDS011;3720;48.274;7.796;2023-03-14T04:53:19;2.33;;;0.50;;
7359;SDS011;3720;48.274;7.796;2023-03-14T04:55:52;4.93;;;0.88;;
7359;SDS011;3720;48.274;7.796;2023-03-14T04:58:25;1.85;;;0.60;;
7359;SDS011;3720;48.274;7.796;2023-03-14T05:01:02;3.20;;;0.63;;
7359;SDS011;3720;48.274;7.796;2023-03-14T05:03:35;2.03;;;0.50;;
7359;SDS011;3720;48.274;7.796;2023-03-14T05:06:08;4.50;;;0.93;;
7359;SDS011;3720;48.274;7.796;2023-03-14T05:08:40;3.80;;;0.93;;
7359;SDS011;3720;48.274;7.796;2023-03-14T05:11:12;3.75;;;0.70;;
7359;SDS011;3720;48.274;7.796;2023-03-14T05:13:44;1.27;;;0.40;;
7359;SDS011;3720;48.274;7.796;2023-03-14T05:16:17;2.08;;;0.60;;
7359;SDS011;3720;48.274;7.796;2023-03-14T05:18:50;2.67;;;0.63;;
7359;SDS011;3720;48.274;7.796;2023-03-14T05:21:22;1.80;;;0.60;;
7359;SDS011;3720;48.274;7.796;2023-03-14T05:23:53;1.80;;;0.60;;
7359;SDS011;3720;48.274;7.796;2023-03-14T05:26:25;2.80;;;0.70;;
7359;SDS011;3720;48.274;7.796;2023-03-14T05:28:57;2.47;;;0.60;;
7359;SDS011;3720;48.274;7.796;2023-03-14T05:31:30;1.85;;;0.47;;
7359;SDS011;3720;48.274;7.796;2023-03-14T05:34:02;4.40;;;0.68;;
7359;SDS011;3720;48.274;7.796;2023-03-14T05:36:34;5.40;;;0.80;;
7359;SDS011;3720;48.274;7.796;2023-03-14T05:39:06;3.03;;;0.50;;
7359;SDS011;3720;48.274;7.796;2023-03-14T05:41:38;3.42;;;0.93;;
7359;SDS011;3720;48.274;7.796;2023-03-14T05:44:10;2.60;;;0.40;;
7359;SDS011;3720;48.274;7.796;2023-03-14T05:46:43;4.43;;;0.50;;
7359;SDS011;3720;48.274;7.796;2023-03-14T05:49:15;5.25;;;0.68;;
7359;SDS011;3720;48.274;7.796;2023-03-14T05:51:47;1.98;;;0.60;;
7359;SDS011;3720;48.274;7.796;2023-03-14T05:54:19;2.58;;;0.60;;
7359;SDS011;3720;48.274;7.796;2023-03-14T05:56:51;1.45;;;0.60;;
7359;SDS011;3720;48.274;7.796;2023-03-14T05:59:23;1.98;;;0.50;;
7359;SDS011;3720;48.274;7.796;2023-03-14T06:01:56;3.45;;;0.60;;
7359;SDS011;3720;48.274;7.796;2023-03-14T06:04:28;4.03;;;0.60;;
7359;SDS011;3720;48.274;7.796;2023-03-14T06:07:00;2.30;;;0.60;;
7359;SDS011;3720;48.274;7.796;2023-03-14T06:09:31;3.72;;;0.73;;
7359;SDS011;3720;48.274;7.796;2023-03-14T06:12:03;2.10;;;0.40;;
7359;SDS011;3720;48.274;7.796;2023-03-14T06:14:35;2.33;;;0.47;;
7359;SDS011;3720;48.274;7.796;2023-03-14T06:17:09;2.20;;;0.55;;
7359;SDS011;3720;48.274;7.796;2023-03-14T06:19:40;2.17;;;0.60;;
7359;SDS011;3720;48.274;7.796;2023-03-14T06:22:12;2.28;;;0.40;;
7359;SDS011;3720;48.274;7.796;2023-03-14T06:24:45;2.15;;;0.57;;
7359;SDS011;3720;48.274;7.796;2023-03-14T06:27:17;2.35;;;0.50;;
7359;SDS011;3720;48.274;7.796;2023-03-14T06:29:48;2.65;;;0.65;;
7359;SDS011;3720;48.274;7.796;2023-03-14T06:32:22;1.70;;;0.40;;
7359;SDS011;3720;48.274;7.796;2023-03-14T06:34:54;2.70;;;0.60;;
7359;SDS011;3720;48.274;7.796;2023-03-14T06:37:27;1.23;;;0.50;;
7359;SDS011;3720;48.274;7.796;2023-03-14T06:39:59;1.75;;;0.40;;
7359;SDS011;3720;48.274;7.796;2023-03-14T06:42:31;1.27;;;0.40;;
7359;SDS011;3720;48.274;7.796;2023-03-14T06:45:03;2.35;;;0.60;;
7359;SDS011;3720;48.274;7.796;2023-03-14T06:47:36;2.30;;;0.60;;
7359;SDS011;3720;48.274;7.796;2023-03-14T06:50:10;3.90;;;0.50;;
7359;SDS011;3720;48.274;7.796;2023-03-14T06:52:42;3.20;;;0.57;;
7359;SDS011;3720;48.274;7.796;2023-03-14T06:55:17;1.95;;;0.50;;
7359;SDS011;3720;48.274;7.796;2023-03-14T06:57:50;2.85;;;0.65;;
7359;SDS011;3720;48.274;7.796;2023-03-14T07:00:23;0.98;;;0.40;;
7359;SDS011;3720;48.274;7.796;2023-03-14T07:02:56;1.95;;;0.60;;
7359;SDS011;3720;48.274;7.796;2023-03-14T07:05:28;2.28;;;0.50;;
7359;SDS011;3720;48.274;7.796;2023-03-14T07:08:00;2.35;;;0.45;;
7359;SDS011;3720;48.274;7.796;2023-03-14T07:10:32;2.30;;;0.88;;
7359;SDS011;3720;48.274;7.796;2023-03-14T07:13:04;3.03;;;0.60;;
7359;SDS011;3720;48.274;7.796;2023-03-14T07:15:36;1.35;;;0.55;;
7359;SDS011;3720;48.274;7.796;2023-03-14T07:18:10;3.20;;;0.70;;
7359;SDS011;3720;48.274;7.796;2023-03-14T07:20:42;2.47;;;0.60;;
7359;SDS011;3720;48.274;7.796;2023-03-14T07:23:16;2.92;;;0.47;;
7359;SDS011;3720;48.274;7.796;2023-03-14T07:25:48;1.38;;;0.30;;
7359;SDS011;3720;48.274;7.796;2023-03-14T07:28:21;3.58;;;0.77;;
7359;SDS011;3720;48.274;7.796;2023-03-14T07:30:53;1.65;;;0.45;;
7359;SDS011;3720;48.274;7.796;2023-03-14T07:33:26;2.58;;;0.38;;
7359;SDS011;3720;48.274;7.796;2023-03-14T07:35:58;1.20;;;0.50;;
7359;SDS011;3720;48.274;7.796;2023-03-14T07:38:31;2.20;;;0.50;;
7359;SDS011;3720;48.274;7.796;2023-03-14T07:41:04;1.25;;;0.43;;
7359;SDS011;3720;48.274;7.796;2023-03-14T07:43:37;1.42;;;0.30;;
7359;SDS011;3720;48.274;7.796;2023-03-14T07:46:08;2.75;;;0.45;;
7359;SDS011;3720;48.274;7.796;2023-03-14T07:48:42;1.77;;;0.50;;
7359;SDS011;3720;48.274;7.796;2023-03-14T07:51:14;2.10;;;0.50;;
7359;SDS011;3720;48.274;7.796;2023-03-14T07:53:46;2.45;;;0.32;;
7359;SDS011;3720;48.274;7.796;2023-03-14T07:56:17;1.10;;;0.43;;
7359;SDS011;3720;48.274;7.796;2023-03-14T07:58:49;1.60;;;0.30;;
7359;SDS011;3720;48.274;7.796;2023-03-14T08:01:21;0.45;;;0.20;;
7359;SDS011;3720;48.274;7.796;2023-03-14T08:03:55;1.35;;;0.40;;
7359;SDS011;3720;48.274;7.796;2023-03-14T08:06:27;2.30;;;0.60;;
7359;SDS011;3720;48.274;7.796;2023-03-14T08:08:58;1.33;;;0.50;;
7359;SDS011;3720;48.274;7.796;2023-03-14T08:11:30;0.98;;;0.40;;
7359;SDS011;3720;48.274;7.796;2023-03-14T08:14:02;0.80;;;0.40;;
7359;SDS011;3720;48.274;7.796;2023-03-14T08:16:34;2.45;;;0.35;;
7359;SDS011;3720;48.274;7.796;2023-03-14T08:19:08;0.63;;;0.30;;
7359;SDS011;3720;48.274;7.796;2023-03-14T08:21:40;0.88;;;0.35;;
7359;SDS011;3720;48.274;7.796;2023-03-14T08:24:12;1.13;;;0.38;;
7359;SDS011;3720;48.274;7.796;2023-03-14T08:26:44;0.93;;;0.30;;
7359;SDS011;3720;48.274;7.796;2023-03-14T08:29:16;2.58;;;0.57;;
7359;SDS011;3720;48.274;7.796;2023-03-14T08:31:47;0.80;;;0.30;;
7359;SDS011;3720;48.274;7.796;2023-03-14T08:34:21;1.83;;;0.43;;
7359;SDS011;3720;48.274;7.796;2023-03-14T08:36:53;1.30;;;0.40;;
7359;SDS011;3720;48.274;7.796;2023-03-14T08:39:26;1.75;;;0.35;;
7359;SDS011;3720;48.274;7.796;2023-03-14T08:41:58;1.27;;;0.30;;
7359;SDS011;3720;48.274;7.796;2023-03-14T08:44:30;0.63;;;0.30;;
7359;SDS011;3720;48.274;7.796;2023-03-14T08:47:02;1.17;;;0.30;;
7359;SDS011;3720;48.274;7.796;2023-03-14T08:49:35;0.77;;;0.40;;
7359;SDS011;3720;48.274;7.796;2023-03-14T08:52:07;0.85;;;0.35;;
7359;SDS011;3720;48.274;7.796;2023-03-14T08:54:39;1.90;;;0.30;;
7359;SDS011;3720;48.274;7.796;2023-03-14T08:57:11;1.30;;;0.30;;
7359;SDS011;3720;48.274;7.796;2023-03-14T08:59:43;0.88;;;0.50;;
7359;SDS011;3720;48.274;7.796;2023-03-14T09:02:15;0.90;;;0.30;;
7359;SDS011;3720;48.274;7.796;2023-03-14T09:04:49;1.75;;;0.40;;
7359;SDS011;3720;48.274;7.796;2023-03-14T09:07:22;3.13;;;0.40;;
7359;SDS011;3720;48.274;7.796;2023-03-14T09:09:53;0.88;;;0.40;;
7359;SDS011;3720;48.274;7.796;2023-03-14T09:12:25;0.77;;;0.32;;
7359;SDS011;3720;48.274;7.796;2023-03-14T09:14:57;1.60;;;0.40;;
7359;SDS011;3720;48.274;7.796;2023-03-14T09:17:29;2.22;;;0.40;;
7359;SDS011;3720;48.274;7.796;2023-03-14T09:20:02;0.43;;;0.20;;
7359;SDS011;3720;48.274;7.796;2023-03-14T09:22:37;1.93;;;0.40;;
7359;SDS011;3720;48.274;7.796;2023-03-14T09:25:09;0.95;;;0.30;;
7359;SDS011;3720;48.274;7.796;2023-03-14T09:27:42;1.33;;;0.30;;
7359;SDS011;3720;48.274;7.796;2023-03-14T09:30:14;0.93;;;0.30;;
7359;SDS011;3720;48.274;7.796;2023-03-14T09:32:47;0.80;;;0.30;;
7359;SDS011;3720;48.274;7.796;2023-03-14T09:35:20;2.05;;;0.30;;
7359;SDS011;3720;48.274;7.796;2023-03-14T09:37:52;0.40;;;0.30;;
7359;SDS011;3720;48.274;7.796;2023-03-14T09:40:24;0.80;;;0.30;;
7359;SDS011;3720;48.274;7.796;2023-03-14T09:43:03;0.70;;;0.30;;
7359;SDS011;3720;48.274;7.796;2023-03-14T09:45:36;0.70;;;0.28;;
7359;SDS011;3720;48.274;7.796;2023-03-14T09:48:12;0.47;;;0.30;;
7359;SDS011;3720;48.274;7.796;2023-03-14T09:50:50;2.75;;;0.40;;
7359;SDS011;3720;48.274;7.796;2023-03-14T09:53:23;1.27;;;0.20;;
7359;SDS011;3720;48.274;7.796;2023-03-14T09:55:58;0.65;;;0.30;;
7359;SDS011;3720;48.274;7.796;2023-03-14T09:58:30;3.20;;;0.40;;
7359;SDS011;3720;48.274;7.796;2023-03-14T10:01:02;2.40;;;0.30;;
7359;SDS011;3720;48.274;7.796;2023-03-14T10:03:35;1.13;;;0.30;;
7359;SDS011;3720;48.274;7.796;2023-03-14T10:06:11;0.63;;;0.30;;
7359;SDS011;3720;48.274;7.796;2023-03-14T10:08:44;0.20;;;0.20;;
7359;SDS011;3720;48.274;7.796;2023-03-14T10:11:17;1.30;;;0.40;;
7359;SDS011;3720;48.274;7.796;2023-03-14T10:13:50;0.75;;;0.30;;
7359;SDS011;3720;48.274;7.796;2023-03-14T10:16:35;1.27;;;0.40;;
7359;SDS011;3720;48.274;7.796;2023-03-14T10:19:10;0.38;;;0.20;;
7359;SDS011;3720;48.274;7.796;2023-03-14T10:21:48;0.90;;;0.20;;
7359;SDS011;3720;48.274;7.796;2023-03-14T10:24:26;0.82;;;0.32;;
7359;SDS011;3720;48.274;7.796;2023-03-14T10:27:00;0.57;;;0.30;;
7359;SDS011;3720;48.274;7.796;2023-03-14T10:29:34;1.85;;;0.40;;
7359;SDS011;3720;48.274;7.796;2023-03-14T10:32:31;0.50;;;0.25;;
7359;SDS011;3720;48.274;7.796;2023-03-14T10:35:06;0.28;;;0.20;;
7359;SDS011;3720;48.274;7.796;2023-03-14T10:37:51;1.63;;;0.32;;
7359;SDS011;3720;48.274;7.796;2023-03-14T10:40:26;2.17;;;0.40;;
7359;SDS011;3720;48.274;7.796;2023-03-14T10:43:00;0.30;;;0.20;;
7359;SDS011;3720;48.274;7.796;2023-03-14T10:45:36;1.05;;;0.40;;
7359;SDS011;3720;48.274;7.796;2023-03-14T10:48:20;0.47;;;0.30;;
7359;SDS011;3720;48.274;7.796;2023-03-14T10:50:55;0.43;;;0.30;;
7359;SDS011;3720;48.274;7.796;2023-03-14T10:53:34;1.05;;;0.30;;
7359;SDS011;3720;48.274;7.796;2023-03-14T10:56:12;0.35;;;0.20;;
7359;SDS011;3720;48.274;7.796;2023-03-14T10:58:46;1.00;;;0.38;;
7359;SDS011;3720;48.274;7.796;2023-03-14T11:01:24;1.17;;;0.32;;
7359;SDS011;3720;48.274;7.796;2023-03-14T11:04:14;0.77;;;0.30;;
7359;SDS011;3720;48.274;7.796;2023-03-14T11:06:56;3.17;;;0.43;;
7359;SDS011;3720;48.274;7.796;2023-03-14T11:09:36;5.15;;;0.70;;
7359;SDS011;3720;48.274;7.796;2023-03-14T11:12:19;2.83;;;0.50;;
7359;SDS011;3720;48.274;7.796;2023-03-14T11:15:02;2.72;;;0.40;;
7359;SDS011;3720;48.274;7.796;2023-03-14T11:17:41;0.85;;;0.20;;
7359;SDS011;3720;48.274;7.796;2023-03-14T11:23:14;0.95;;;0.30;;
7359;SDS011;3720;48.274;7.796;2023-03-14T11:25:55;0.95;;;0.30;;
7359;SDS011;3720;48.274;7.796;2023-03-14T11:28:34;0.30;;;0.30;;
7359;SDS011;3720;48.274;7.796;2023-03-14T11:31:11;5.90;;;0.40;;
7359;SDS011;3720;48.274;7.796;2023-03-14T11:33:49;0.43;;;0.40;;
7359;SDS011;3720;48.274;7.796;2023-03-14T11:36:27;0.35;;;0.32;;
7359;SDS011;3720;48.274;7.796;2023-03-14T11:41:42;2.25;;;0.35;;
7359;SDS011;3720;48.274;7.796;2023-03-14T11:46:51;1.55;;;0.68;;
7359;SDS011;3720;48.274;7.796;2023-03-14T11:49:29;2.55;;;0.80;;
7359;SDS011;3720;48.274;7.796;2023-03-14T11:52:05;2.42;;;0.40;;
7359;SDS011;3720;48.274;7.796;2023-03-14T11:54:41;1.38;;;0.70;;
7359;SDS011;3720;48.274;7.796;2023-03-14T11:57:19;0.95;;;0.47;;
7359;SDS011;3720;48.274;7.796;2023-03-14T11:59:52;2.42;;;0.70;;
7359;SDS011;3720;48.274;7.796;2023-03-14T12:02:32;1.05;;;0.60;;
7359;SDS011;3720;48.274;7.796;2023-03-14T12:05:27;2.20;;;0.50;;
7359;SDS011;3720;48.274;7.796;2023-03-14T12:11:04;2.03;;;0.70;;
7359;SDS011;3720;48.274;7.796;2023-03-14T12:13:45;1.55;;;0.60;;
7359;SDS011;3720;48.274;7.796;2023-03-14T12:16:27;0.82;;;0.50;;
7359;SDS011;3720;48.274;7.796;2023-03-14T12:19:14;1.83;;;0.50;;
7359;SDS011;3720;48.274;7.796;2023-03-14T12:21:59;1.73;;;0.60;;
7359;SDS011;3720;48.274;7.796;2023-03-14T12:24:37;1.80;;;0.50;;
7359;SDS011;3720;48.274;7.796;2023-03-14T12:30:28;3.10;;;0.50;;
7359;SDS011;3720;48.274;7.796;2023-03-14T12:39:21;1.23;;;0.50;;
7359;SDS011;3720;48.274;7.796;2023-03-14T12:42:05;3.78;;;0.50;;
7359;SDS011;3720;48.274;7.796;2023-03-14T12:44:45;3.70;;;0.70;;
7359;SDS011;3720;48.274;7.796;2023-03-14T12:50:37;2.95;;;0.63;;
7359;SDS011;3720;48.274;7.796;2023-03-14T12:53:25;2.63;;;0.50;;
7359;SDS011;3720;48.274;7.796;2023-03-14T12:56:26;2.45;;;0.60;;
7359;SDS011;3720;48.274;7.796;2023-03-14T13:01:59;1.60;;;0.43;;
7359;SDS011;3720;48.274;7.796;2023-03-14T13:04:34;1.50;;;0.55;;
7359;SDS011;3720;48.274;7.796;2023-03-14T13:07:12;2.55;;;0.55;;
7359;SDS011;3720;48.274;7.796;2023-03-14T13:10:04;2.25;;;0.50;;
7359;SDS011;3720;48.274;7.796;2023-03-14T13:12:50;2.05;;;0.55;;
7359;SDS011;3720;48.274;7.796;2023-03-14T13:15:27;4.07;;;0.70;;
7359;SDS011;3720;48.274;7.796;2023-03-14T13:18:02;2.75;;;0.82;;
7359;SDS011;3720;48.274;7.796;2023-03-14T13:20:42;1.85;;;0.57;;
7359;SDS011;3720;48.274;7.796;2023-03-14T13:23:22;1.75;;;0.77;;
7359;SDS011;3720;48.274;7.796;2023-03-14T13:25:56;1.92;;;0.60;;
7359;SDS011;3720;48.274;7.796;2023-03-14T13:28:30;2.17;;;0.90;;
7359;SDS011;3720;48.274;7.796;2023-03-14T13:31:12;1.88;;;0.65;;
7359;SDS011;3720;48.274;7.796;2023-03-14T13:33:58;1.73;;;0.60;;
7359;SDS011;3720;48.274;7.796;2023-03-14T13:36:31;4.18;;;0.75;;
7359;SDS011;3720;48.274;7.796;2023-03-14T13:39:09;1.90;;;0.60;;
7359;SDS011;3720;48.274;7.796;2023-03-14T13:41:44;3.78;;;0.57;;
7359;SDS011;3720;48.274;7.796;2023-03-14T13:44:30;2.33;;;0.82;;
7359;SDS011;3720;48.274;7.796;2023-03-14T13:47:05;4.15;;;0.85;;
7359;SDS011;3720;48.274;7.796;2023-03-14T13:49:43;1.83;;;0.60;;
7359;SDS011;3720;48.274;7.796;2023-03-14T13:52:28;4.70;;;0.90;;
7359;SDS011;3720;48.274;7.796;2023-03-14T13:55:02;1.80;;;0.90;;
7359;SDS011;3720;48.274;7.796;2023-03-14T13:57:42;1.60;;;0.40;;
7359;SDS011;3720;48.274;7.796;2023-03-14T14:00:17;1.75;;;0.65;;
7359;SDS011;3720;48.274;7.796;2023-03-14T14:02:50;2.63;;;0.77;;
7359;SDS011;3720;48.274;7.796;2023-03-14T14:05:22;2.47;;;0.65;;
7359;SDS011;3720;48.274;7.796;2023-03-14T14:07:58;2.83;;;0.63;;
7359;SDS011;3720;48.274;7.796;2023-03-14T14:10:31;1.60;;;0.73;;
7359;SDS011;3720;48.274;7.796;2023-03-14T14:13:03;3.33;;;0.70;;
7359;SDS011;3720;48.274;7.796;2023-03-14T14:15:43;1.77;;;0.60;;
7359;SDS011;3720;48.274;7.796;2023-03-14T14:18:18;3.65;;;0.80;;
7359;SDS011;3720;48.274;7.796;2023-03-14T14:20:55;1.35;;;0.60;;
7359;SDS011;3720;48.274;7.796;2023-03-14T14:23:28;1.88;;;0.63;;
7359;SDS011;3720;48.274;7.796;2023-03-14T14:26:03;3.80;;;0.70;;
7359;SDS011;3720;48.274;7.796;2023-03-14T14:28:36;5.32;;;1.23;;
7359;SDS011;3720;48.274;7.796;2023-03-14T14:31:20;2.78;;;0.75;;
7359;SDS011;3720;48.274;7.796;2023-03-14T14:33:55;2.42;;;0.70;;
7359;SDS011;3720;48.274;7.796;2023-03-14T14:36:29;1.75;;;0.60;;
7359;SDS011;3720;48.274;7.796;2023-03-14T14:39:11;1.48;;;0.63;;
7359;SDS011;3720;48.274;7.796;2023-03-14T14:41:50;3.00;;;0.80;;
7359;SDS011;3720;48.274;7.796;2023-03-14T14:44:26;2.15;;;0.63;;
7359;SDS011;3720;48.274;7.796;2023-03-14T14:47:01;2.95;;;0.82;;
7359;SDS011;3720;48.274;7.796;2023-03-14T14:49:34;2.95;;;0.85;;
7359;SDS011;3720;48.274;7.796;2023-03-14T14:52:09;0.98;;;0.57;;
7359;SDS011;3720;48.274;7.796;2023-03-14T14:57:20;2.47;;;0.85;;
7359;SDS011;3720;48.274;7.796;2023-03-14T14:59:55;4.18;;;0.88;;
7359;SDS011;3720;48.274;7.796;2023-03-14T15:02:35;2.40;;;0.77;;
7359;SDS011;3720;48.274;7.796;2023-03-14T15:05:14;2.47;;;0.75;;
7359;SDS011;3720;48.274;7.796;2023-03-14T15:07:47;3.13;;;0.80;;
7359;SDS011;3720;48.274;7.796;2023-03-14T15:10:20;3.58;;;0.80;;
7359;SDS011;3720;48.274;7.796;2023-03-14T15:12:55;2.60;;;0.82;;
7359;SDS011;3720;48.274;7.796;2023-03-14T15:15:27;7.40;;;1.00;;
7359;SDS011;3720;48.274;7.796;2023-03-14T15:17:59;2.75;;;0.80;;
7359;SDS011;3720;48.274;7.796;2023-03-14T15:20:30;2.20;;;0.73;;
7359;SDS011;3720;48.274;7.796;2023-03-14T15:23:04;2.28;;;0.77;;
7359;SDS011;3720;48.274;7.796;2023-03-14T15:25:39;3.88;;;1.02;;
7359;SDS011;3720;48.274;7.796;2023-03-14T15:28:17;7.38;;;0.90;;
7359;SDS011;3720;48.274;7.796;2023-03-14T15:30:51;4.00;;;0.80;;
7359;SDS011;3720;48.274;7.796;2023-03-14T15:33:25;2.90;;;0.80;;
7359;SDS011;3720;48.274;7.796;2023-03-14T15:35:58;5.03;;;1.08;;
7359;SDS011;3720;48.274;7.796;2023-03-14T15:38:31;2.65;;;1.08;;
7359;SDS011;3720;48.274;7.796;2023-03-14T15:41:03;2.97;;;0.90;;
7359;SDS011;3720;48.274;7.796;2023-03-14T15:43:36;4.28;;;1.13;;
7359;SDS011;3720;48.274;7.796;2023-03-14T15:46:08;6.95;;;1.30;;
7359;SDS011;3720;48.274;7.796;2023-03-14T15:48:41;5.63;;;1.30;;
7359;SDS011;3720;48.274;7.796;2023-03-14T15:51:14;4.25;;;0.95;;
7359;SDS011;3720;48.274;7.796;2023-03-14T15:53:46;4.63;;;0.95;;
7359;SDS011;3720;48.274;7.796;2023-03-14T15:56:19;5.05;;;1.10;;
7359;SDS011;3720;48.274;7.796;2023-03-14T15:58:55;3.75;;;1.08;;
7359;SDS011;3720;48.274;7.796;2023-03-14T16:01:27;3.72;;;1.15;;
7359;SDS011;3720;48.274;7.796;2023-03-14T16:03:59;3.70;;;1.10;;
7359;SDS011;3720;48.274;7.796;2023-03-14T16:06:34;4.85;;;1.20;;
7359;SDS011;3720;48.274;7.796;2023-03-14T16:09:06;4.88;;;1.55;;
7359;SDS011;3720;48.274;7.796;2023-03-14T16:11:38;6.38;;;1.25;;
7359;SDS011;3720;48.274;7.796;2023-03-14T16:14:12;3.95;;;1.20;;
7359;SDS011;3720;48.274;7.796;2023-03-14T16:16:44;6.80;;;1.35;;
7359;SDS011;3720;48.274;7.796;2023-03-14T16:19:16;5.28;;;1.30;;
7359;SDS011;3720;48.274;7.796;2023-03-14T16:21:48;4.22;;;1.15;;
7359;SDS011;3720;48.274;7.796;2023-03-14T16:24:19;4.35;;;1.05;;
7359;SDS011;3720;48.274;7.796;2023-03-14T16:26:51;3.67;;;1.10;;
7359;SDS011;3720;48.274;7.796;2023-03-14T16:29:24;2.53;;;0.90;;